»·PEaware :: N632CP KOLM-KPDX

N632CP :: KOLM-KPDX

FLIGHT INFORMATION

Flight Status: Arrived
Operator: Privately registered:
United States
More flights under this callsign
Pilot: William K. (19718)
Aircraft: CESSNA 172 SKYHAWK
(C172)
More flights by this aircraft type
Origin: KOLM Olympia
United States
Destination: KPDX Portland Intl
United States
More flights between these airports :: More routes between these airports
Route: +YELM4 YELM OLM V287 BTG
File this flight plan on PilotEdge
Remarks: Sample flight plan
Altitude:
(Current/Filed)
9,000ft
Speed:
(Current/Filed)
115kts
Departed: 11-Jul-18 05:51 PM
Arrived: 11-Jul-18 06:40 PM
Distance/Time
Traveled:
84nm/0:49
Distance/Time
To Go:
Arrived

Flight Plot

Page will automatically refresh every two minutes.

Flight plan parsing failed; only flown route is shown


Map Options




Map Legend


Flown Route
Filed Route
Departure Airport
Arrival Airport
Navaid (VOR, NDB)
Fix

Horizontal Profiles

Position Reports

Time Latitude Longitude Heading Altitude Ground
Speed
11-Jul-18 17:22 46.975842 -122.909193 0 197ft 0kts
11-Jul-18 17:23 46.975846 -122.909193 0 197ft 0kts
11-Jul-18 17:24 46.975846 -122.909193 0 197ft 0kts
11-Jul-18 17:25 46.975846 -122.909193 0 197ft 0kts
11-Jul-18 17:26 46.975846 -122.909193 0 197ft 0kts
11-Jul-18 17:27 46.975846 -122.909193 0 197ft 0kts
11-Jul-18 17:28 46.975846 -122.909193 0 197ft 0kts
11-Jul-18 17:29 46.975846 -122.909193 0 197ft 0kts
11-Jul-18 17:30 46.975846 -122.909193 0 197ft 0kts
11-Jul-18 17:31 46.975846 -122.909193 0 197ft 0kts
11-Jul-18 17:32 46.975846 -122.909193 0 197ft 0kts
11-Jul-18 17:33 46.975846 -122.909193 0 197ft 0kts
11-Jul-18 17:34 46.975846 -122.909193 0 197ft 0kts
11-Jul-18 17:35 46.975565 -122.907937 131 197ft 6kts
11-Jul-18 17:36 46.974003 -122.907715 179 199ft 4kts
11-Jul-18 17:37 46.971944 -122.907749 182 201ft 14kts
11-Jul-18 17:38 46.970616 -122.907783 179 201ft 0kts
11-Jul-18 17:39 46.970307 -122.908406 88 201ft 0kts
11-Jul-18 17:40 46.970307 -122.908404 87 201ft 0kts
11-Jul-18 17:41 46.970307 -122.908404 87 201ft 0kts
11-Jul-18 17:42 46.970307 -122.908404 87 201ft 0kts
11-Jul-18 17:43 46.970307 -122.908404 87 201ft 0kts
11-Jul-18 17:44 46.970307 -122.908404 87 201ft 0kts
11-Jul-18 17:45 46.970923 -122.907748 0 201ft 0kts
11-Jul-18 17:46 46.974868 -122.907743 1 198ft 22kts
11-Jul-18 17:47 46.976635 -122.904757 102 194ft 22kts
11-Jul-18 17:48 46.976485 -122.903778 102 194ft 0kts
11-Jul-18 17:49 46.976485 -122.903778 102 194ft 0kts
11-Jul-18 17:50 46.976485 -122.903778 102 194ft 0kts
11-Jul-18 17:51 46.976467 -122.903656 101 194ft 6kts
11-Jul-18 17:52 46.963585 -122.907697 195 567ft 88kts
11-Jul-18 17:53 46.953809 -122.879660 77 1183ft 104kts
11-Jul-18 17:54 46.957692 -122.837442 80 1825ft 104kts
11-Jul-18 17:55 46.951074 -122.799900 160 2489ft 114kts
11-Jul-18 17:56 46.923408 -122.820637 215 3167ft 114kts
11-Jul-18 17:57 46.898215 -122.847564 215 3914ft 109kts
11-Jul-18 17:58 46.874446 -122.873502 215 4705ft 105kts
11-Jul-18 17:59 46.847720 -122.874493 164 5497ft 98kts
11-Jul-18 18:00 46.821389 -122.866442 162 6289ft 95kts
11-Jul-18 18:01 46.795797 -122.858655 162 7082ft 93kts
11-Jul-18 18:02 46.771416 -122.851338 162 7865ft 87kts
11-Jul-18 18:03 46.748842 -122.845341 163 8647ft 79kts
11-Jul-18 18:04 46.725577 -122.839580 164 9059ft 111kts
11-Jul-18 18:05 46.691568 -122.829848 164 9051ft 130kts
11-Jul-18 18:06 46.655764 -122.819370 164 9045ft 132kts
11-Jul-18 18:07 46.619662 -122.809602 165 9042ft 131kts
11-Jul-18 18:08 46.584069 -122.800292 165 9042ft 129kts
11-Jul-18 18:09 46.550826 -122.792007 166 9041ft 129kts
11-Jul-18 18:10 46.515295 -122.783223 166 9035ft 130kts
11-Jul-18 18:11 46.479656 -122.774205 165 9029ft 130kts
11-Jul-18 18:12 46.444177 -122.764989 165 9023ft 130kts
11-Jul-18 18:13 46.408611 -122.755512 165 9017ft 130kts
11-Jul-18 18:14 46.374050 -122.746020 165 9015ft 130kts
11-Jul-18 18:15 46.340363 -122.736666 165 9015ft 130kts
11-Jul-18 18:16 46.304801 -122.726664 164 9015ft 130kts
11-Jul-18 18:17 46.268940 -122.723334 167 9015ft 130kts
11-Jul-18 18:18 46.233767 -122.712581 160 9015ft 129kts
11-Jul-18 18:19 46.200868 -122.698328 157 9015ft 129kts
11-Jul-18 18:20 46.166915 -122.681772 156 9015ft 129kts
11-Jul-18 18:21 46.132799 -122.665693 158 9015ft 129kts
11-Jul-18 18:22 46.098116 -122.651326 161 9015ft 130kts
11-Jul-18 18:23 46.059703 -122.642990 172 8242ft 143kts
11-Jul-18 18:24 46.020330 -122.639766 175 7442ft 143kts
11-Jul-18 18:25 45.980848 -122.638168 175 6658ft 144kts
11-Jul-18 18:26 45.940557 -122.635555 173 5868ft 145kts
11-Jul-18 18:27 45.900509 -122.628243 166 5112ft 144kts
11-Jul-18 18:28 45.864258 -122.617382 165 4436ft 146kts
11-Jul-18 18:29 45.824834 -122.604293 165 3618ft 143kts
11-Jul-18 18:30 45.787065 -122.590223 166 3010ft 136kts
11-Jul-18 18:31 45.752974 -122.576372 164 2926ft 111kts
11-Jul-18 18:32 45.724237 -122.564505 163 3001ft 110kts
11-Jul-18 18:33 45.694456 -122.552019 166 2992ft 111kts
11-Jul-18 18:34 45.664985 -122.539382 164 2994ft 110kts
11-Jul-18 18:35 45.635305 -122.526673 162 2993ft 111kts
11-Jul-18 18:36 45.604270 -122.513380 166 2426ft 123kts
11-Jul-18 18:37 45.571125 -122.498345 176 1493ft 126kts
11-Jul-18 18:38 45.566669 -122.525779 309 921ft 66kts
11-Jul-18 18:39 45.576059 -122.548428 302 487ft 66kts
11-Jul-18 18:40 45.584931 -122.570477 302 24ft 43kts
11-Jul-18 18:41 45.586278 -122.576384 207 20ft 0kts
11-Jul-18 18:42 45.585234 -122.577270 211 20ft 15kts
11-Jul-18 18:43 45.585052 -122.577429 214 20ft 0kts
11-Jul-18 18:44 45.585052 -122.577429 214 20ft 0kts
11-Jul-18 18:45 45.585052 -122.577429 214 20ft 0kts
11-Jul-18 18:46 45.585052 -122.577429 214 20ft 0kts
11-Jul-18 18:47 45.585052 -122.577429 214 20ft 0kts
11-Jul-18 18:48 45.585052 -122.577429 214 20ft 0kts
11-Jul-18 18:49 45.585052 -122.577429 214 20ft 0kts
11-Jul-18 18:50 45.585052 -122.577429 214 20ft 0kts
11-Jul-18 18:51 45.585052 -122.577429 214 20ft 0kts
11-Jul-18 18:52 45.585052 -122.577429 214 20ft 0kts
11-Jul-18 18:53 45.585052 -122.577429 214 20ft 0kts
11-Jul-18 18:54 45.585052 -122.577429 214 20ft 0kts
11-Jul-18 18:55 45.585052 -122.577429 214 20ft 0kts

Navigation Log

Ident Type
Flight plan parsing failed, navigation log unavailable